createdAt,value
2022-10-01T00:01:48.796Z,6.35
2022-10-01T00:06:52.576Z,9.00
2022-10-01T00:11:59.761Z,7.87
2022-10-01T00:17:03.540Z,5.75
2022-10-01T00:22:07.172Z,13.82
2022-10-01T00:27:12.548Z,6.30
2022-10-01T00:32:16.627Z,7.62
2022-10-01T00:37:22.235Z,6.22
2022-10-01T00:42:28.239Z,5.78
2022-10-01T00:47:35.975Z,7.53
2022-10-01T00:52:42.952Z,6.80
2022-10-01T00:57:48.447Z,11.65
2022-10-01T01:02:52.607Z,9.57
2022-10-01T01:07:56.370Z,6.95
2022-10-01T01:13:12.921Z,10.88
2022-10-01T01:18:22.335Z,8.32
2022-10-01T01:23:41.814Z,5.62
2022-10-01T01:28:51.557Z,4.87
2022-10-01T01:33:58.826Z,4.40
2022-10-01T01:39:05.503Z,4.07
2022-10-01T01:44:16.804Z,4.82
2022-10-01T01:49:21.216Z,5.28
2022-10-01T01:54:25.434Z,4.60
2022-10-01T01:59:31.585Z,3.15
2022-10-01T02:04:38.536Z,5.12
2022-10-01T02:09:52.241Z,5.85
2022-10-01T02:15:06.398Z,4.35
2022-10-01T02:20:21.176Z,2.55
2022-10-01T02:25:28.832Z,5.30
2022-10-01T02:30:36.598Z,2.97
2022-10-01T02:35:42.145Z,2.77
2022-10-01T02:40:48.513Z,6.93
2022-10-01T02:45:58.575Z,2.53
2022-10-01T02:51:15.804Z,3.08
2022-10-01T02:56:48.350Z,2.10
2022-10-01T03:01:54.052Z,2.47
2022-10-01T03:07:03.356Z,2.50
2022-10-01T03:12:07.762Z,3.35
2022-10-01T03:17:13.691Z,1.75
2022-10-01T03:22:20.796Z,3.35
2022-10-01T03:27:24.484Z,1.70
2022-10-01T03:32:29.542Z,2.70
2022-10-01T03:37:33.271Z,3.03
2022-10-01T03:42:37.025Z,4.43
2022-10-01T03:47:42.035Z,1.77
2022-10-01T03:52:47.141Z,1.58
2022-10-01T03:57:50.936Z,1.42
2022-10-01T04:02:56.013Z,2.87
2022-10-01T04:08:00.968Z,3.35
2022-10-01T04:13:05.267Z,1.95
2022-10-01T04:18:10.639Z,2.97
2022-10-01T04:23:14.300Z,1.95
2022-10-01T04:28:18.318Z,1.70
2022-10-01T04:33:23.414Z,1.70
2022-10-01T04:38:27.210Z,2.58
2022-10-01T04:43:30.947Z,6.32
2022-10-01T04:48:36.021Z,3.20
2022-10-01T04:53:39.716Z,2.75
2022-10-01T04:58:43.363Z,3.60
2022-10-01T05:03:48.503Z,3.67
2022-10-01T05:08:52.559Z,6.57
2022-10-01T05:13:56.424Z,5.00
2022-10-01T05:19:01.427Z,5.18
2022-10-01T05:24:05.577Z,6.12
2022-10-01T05:29:09.342Z,6.75
2022-10-01T05:34:14.431Z,8.07
2022-10-01T05:39:18.108Z,8.77
2022-10-01T05:44:21.771Z,9.25
2022-10-01T05:49:26.923Z,11.48
2022-10-01T05:54:30.606Z,15.80
2022-10-01T05:59:34.300Z,12.00
2022-10-01T06:04:41.261Z,19.65
2022-10-01T06:09:45.310Z,15.65
2022-10-01T06:14:48.943Z,14.82
2022-10-01T06:19:53.961Z,18.15
2022-10-01T06:24:57.752Z,15.00
2022-10-01T06:30:01.462Z,15.00
2022-10-01T06:35:07.714Z,14.40
2022-10-01T06:40:11.750Z,13.93
2022-10-01T06:45:15.858Z,18.42
2022-10-01T06:50:20.836Z,17.35
2022-10-01T06:55:29.045Z,15.98
2022-10-01T07:00:35.328Z,13.82
2022-10-01T07:05:40.989Z,16.85
2022-10-01T07:10:45.564Z,13.27
2022-10-01T07:15:49.324Z,12.45
2022-10-01T07:20:54.361Z,13.30
2022-10-01T07:25:58.953Z,45.60
2022-10-01T07:31:07.228Z,20.60
2022-10-01T07:36:13.735Z,25.90
2022-10-01T07:41:18.002Z,20.67
2022-10-01T07:46:21.851Z,38.75
2022-10-01T07:51:27.575Z,20.73
2022-10-01T07:56:31.404Z,18.37
2022-10-01T08:01:35.330Z,23.58
2022-10-01T08:06:40.575Z,22.27
2022-10-01T08:11:45.487Z,21.83
2022-10-01T08:16:49.227Z,26.87
2022-10-01T08:21:54.322Z,36.20
2022-10-01T08:26:58.192Z,30.55
2022-10-01T08:32:02.264Z,30.30
2022-10-01T08:37:07.425Z,29.00
2022-10-01T08:42:22.203Z,18.70
2022-10-01T08:47:32.396Z,14.87
2022-10-01T08:52:44.304Z,13.02
2022-10-01T08:57:53.115Z,15.13
2022-10-01T09:03:01.499Z,17.37
2022-10-01T09:13:54.422Z,14.95
2022-10-01T09:19:16.257Z,21.67
2022-10-01T09:24:38.219Z,24.95
2022-10-01T09:29:48.558Z,20.67
2022-10-01T09:34:53.697Z,18.25
2022-10-01T09:40:14.786Z,18.33
2022-10-01T09:45:19.678Z,19.75
2022-10-01T09:50:31.944Z,19.52
2022-10-01T09:55:41.760Z,15.10
2022-10-01T10:00:48.343Z,13.23
2022-10-01T10:05:52.650Z,13.38
2022-10-01T10:11:01.411Z,21.73
2022-10-01T10:16:11.059Z,16.02
2022-10-01T10:21:19.545Z,13.30
2022-10-01T10:26:32.501Z,15.23
2022-10-01T10:31:42.146Z,17.55
2022-10-01T10:36:47.234Z,10.07
2022-10-01T10:41:53.944Z,19.10
2022-10-01T10:47:03.427Z,17.25
2022-10-01T10:52:20.521Z,19.15
2022-10-01T10:57:28.835Z,18.55
2022-10-01T11:02:34.007Z,11.70
2022-10-01T11:07:37.824Z,9.38
2022-10-01T11:12:56.664Z,14.87
2022-10-01T11:18:22.201Z,11.57
2022-10-01T11:23:53.468Z,12.05
2022-10-01T11:29:11.934Z,12.25
2022-10-01T11:34:39.864Z,9.18
2022-10-01T11:39:45.954Z,12.15
2022-10-01T11:45:00.815Z,12.45
2022-10-01T11:50:09.219Z,13.52
2022-10-01T11:55:34.451Z,16.27
2022-10-01T12:00:43.115Z,12.48
2022-10-01T12:05:47.672Z,11.50
2022-10-01T12:10:58.845Z,10.40
2022-10-01T12:16:13.489Z,5.60
2022-10-01T12:21:22.146Z,6.12
2022-10-01T12:26:37.873Z,9.50
2022-10-01T12:31:50.177Z,8.40
2022-10-01T12:37:10.125Z,10.18
2022-10-01T12:42:35.244Z,9.60
2022-10-01T12:47:48.277Z,10.00
2022-10-01T12:53:03.055Z,9.40
2022-10-01T12:58:20.619Z,9.90
2022-10-01T13:04:01.144Z,8.90
2022-10-01T13:09:17.567Z,14.75
2022-10-01T13:14:22.590Z,12.95
2022-10-01T13:19:35.858Z,10.98
2022-10-01T13:24:43.215Z,11.32
2022-10-01T13:29:55.448Z,7.53
2022-10-01T13:35:03.605Z,9.10
2022-10-01T13:40:23.921Z,7.70
2022-10-01T13:45:30.928Z,11.75
2022-10-01T13:50:36.060Z,10.20
2022-10-01T13:55:43.016Z,6.00
2022-10-01T14:00:49.776Z,8.67
2022-10-01T14:05:57.994Z,7.53
2022-10-01T14:11:23.525Z,9.73
2022-10-01T14:16:27.373Z,12.00
2022-10-01T14:21:43.875Z,8.02
2022-10-01T14:26:53.903Z,7.70
2022-10-01T14:32:06.210Z,10.52
2022-10-01T14:37:17.198Z,6.18
2022-10-01T14:42:21.311Z,8.07
2022-10-01T14:47:27.855Z,7.93
2022-10-01T14:52:33.765Z,7.90
2022-10-01T14:57:40.651Z,9.80
2022-10-01T15:02:49.478Z,5.05
2022-10-01T15:07:54.574Z,7.32
2022-10-01T15:12:58.400Z,8.68
2022-10-01T15:18:05.334Z,5.20
2022-10-01T15:23:13.215Z,9.43
2022-10-01T15:28:25.978Z,7.62
2022-10-01T15:33:32.091Z,7.60
2022-10-01T15:38:37.575Z,10.80
2022-10-01T15:43:42.074Z,8.52
2022-10-01T15:48:46.492Z,14.35
2022-10-01T15:53:52.963Z,18.23
2022-10-01T15:59:00.979Z,13.45
2022-10-01T16:04:09.038Z,13.27
2022-10-01T16:09:18.212Z,11.38
2022-10-01T16:14:29.242Z,13.30
2022-10-01T16:19:33.176Z,11.10
2022-10-01T16:24:45.629Z,12.37
2022-10-01T16:29:55.814Z,11.07
2022-10-01T16:35:17.186Z,9.40
2022-10-01T16:40:23.854Z,11.88
2022-10-01T16:45:29.316Z,7.85
2022-10-01T16:50:33.103Z,12.68
2022-10-01T16:55:38.448Z,8.98
2022-10-01T17:00:42.820Z,13.20
2022-10-01T17:05:46.764Z,13.32
2022-10-01T17:10:58.573Z,14.45
2022-10-01T17:16:04.886Z,11.90
2022-10-01T17:21:10.515Z,13.25
2022-10-01T17:26:15.572Z,13.35
2022-10-01T17:31:19.307Z,11.40
2022-10-01T17:36:23.028Z,16.30
2022-10-01T17:41:28.458Z,14.65
2022-10-01T17:46:32.293Z,18.48
2022-10-01T17:51:36.287Z,11.48
2022-10-01T17:56:42.087Z,20.45
2022-10-01T18:01:46.062Z,13.65
2022-10-01T18:06:52.253Z,23.33
2022-10-01T18:11:57.318Z,22.00
2022-10-01T18:17:01.229Z,22.05
2022-10-01T18:22:13.732Z,17.52
2022-10-01T18:27:19.245Z,11.10
2022-10-01T18:32:25.127Z,12.27
2022-10-01T18:37:37.778Z,10.32
2022-10-01T18:42:49.416Z,13.85
2022-10-01T18:48:08.074Z,12.20
2022-10-01T18:53:24.861Z,15.43
2022-10-01T18:58:46.755Z,14.63
2022-10-01T19:04:30.137Z,11.70
2022-10-01T19:09:44.891Z,13.57
2022-10-01T19:15:01.547Z,12.35
2022-10-01T19:20:16.977Z,20.83
2022-10-01T19:25:27.647Z,18.08
2022-10-01T19:30:42.316Z,19.12
2022-10-01T19:35:53.176Z,16.48
2022-10-01T19:41:00.344Z,12.60
2022-10-01T19:46:12.750Z,16.33
2022-10-01T19:51:22.784Z,13.10
2022-10-01T19:56:29.413Z,26.50
2022-10-01T20:01:39.596Z,27.13
2022-10-01T20:06:47.376Z,26.87
2022-10-01T20:12:00.499Z,17.77
2022-10-01T20:17:16.183Z,20.10
2022-10-01T20:22:26.688Z,21.65
2022-10-01T20:27:38.304Z,19.05
2022-10-01T20:32:51.802Z,15.73
2022-10-01T20:38:09.789Z,22.33
2022-10-01T20:43:18.782Z,19.35
2022-10-01T20:48:28.236Z,19.27
2022-10-01T20:53:38.898Z,18.95
2022-10-01T20:58:49.167Z,21.27
2022-10-01T21:04:01.441Z,22.52
2022-10-01T21:09:15.916Z,23.35
2022-10-01T21:14:25.234Z,22.02
2022-10-01T21:19:48.278Z,18.50
2022-10-01T21:24:59.355Z,27.65
2022-10-01T21:30:11.811Z,24.42
2022-10-01T21:35:26.865Z,30.88
2022-10-01T21:40:43.109Z,23.25
2022-10-01T21:45:55.088Z,32.63
2022-10-01T21:51:06.288Z,23.23
2022-10-01T21:56:24.955Z,22.08
2022-10-01T22:01:46.271Z,20.52
2022-10-01T22:06:58.235Z,28.70
2022-10-01T22:12:03.437Z,29.92
2022-10-01T22:17:14.790Z,29.33
2022-10-01T22:22:24.043Z,29.80
2022-10-01T22:27:34.175Z,27.23
2022-10-01T22:32:44.436Z,20.80
2022-10-01T22:37:54.811Z,33.80
2022-10-01T22:43:04.877Z,17.70
2022-10-01T22:48:21.331Z,21.75
2022-10-01T22:53:46.448Z,32.47
2022-10-01T22:59:08.689Z,24.92
2022-10-01T23:04:33.120Z,35.40
2022-10-01T23:09:46.677Z,19.50
2022-10-01T23:15:00.680Z,40.05
2022-10-01T23:20:14.127Z,28.23
2022-10-01T23:25:25.786Z,25.85
2022-10-01T23:30:37.853Z,38.53
2022-10-01T23:35:49.256Z,35.60
2022-10-01T23:40:57.775Z,30.95
2022-10-01T23:46:06.384Z,29.60
2022-10-01T23:51:18.411Z,34.20
2022-10-01T23:56:45.538Z,27.58
